Time;durP1;ratioP1;P1;durP2;ratioP2;P2;SDS_P1;SDS_P2;PMS_P1;PMS_P2;Temp;Humidity;BMP_temperature;BMP_pressure;BME280_temperature;BME280_humidity;BME280_pressure;Samples;Min_cycle;Max_cycle;Signal;HPM_P1;HPM_P2
2021/05/23 00:00:54;;;;;;;4.80;0.70;;;11.50;99.90;;;;;;1880373;76;21075;-72
2021/05/23 00:03:20;;;;;;;0.70;0.40;;;11.50;99.90;;;;;;1880375;76;21047;-72
2021/05/23 00:05:46;;;;;;;1.00;0.60;;;11.50;99.90;;;;;;1880400;76;21140;-72
2021/05/23 00:08:12;;;;;;;1.00;0.53;;;11.40;99.90;;;;;;1880358;76;21148;-72
2021/05/23 00:10:38;;;;;;;1.80;0.90;;;11.30;99.90;;;;;;1880507;76;21538;-71
2021/05/23 00:13:05;;;;;;;0.57;0.57;;;11.30;99.90;;;;;;1880410;76;21502;-72
2021/05/23 00:15:31;;;;;;;1.35;0.60;;;11.20;99.90;;;;;;1880463;76;21588;-72
2021/05/23 00:17:57;;;;;;;2.15;0.80;;;11.20;99.90;;;;;;1880382;76;21454;-72
2021/05/23 00:20:23;;;;;;;1.70;0.80;;;11.20;99.90;;;;;;1880528;76;21066;-72
2021/05/23 00:22:49;;;;;;;1.67;0.50;;;11.20;99.90;;;;;;1880381;76;21122;-72
2021/05/23 00:25:15;;;;;;;1.27;0.47;;;11.30;99.90;;;;;;1880487;76;21070;-72
2021/05/23 00:27:41;;;;;;;2.65;0.60;;;11.40;99.90;;;;;;1880470;76;21144;-72
2021/05/23 00:30:08;;;;;;;2.45;0.62;;;11.40;99.90;;;;;;1880545;76;21067;-73
2021/05/23 00:32:34;;;;;;;2.27;0.80;;;11.40;99.90;;;;;;1880391;76;21070;-72
2021/05/23 00:35:00;;;;;;;0.50;0.50;;;11.40;99.90;;;;;;1880506;76;21152;-71
2021/05/23 00:37:27;;;;;;;0.55;0.55;;;11.40;99.90;;;;;;1880418;76;21103;-74
2021/05/23 00:39:53;;;;;;;0.88;0.60;;;11.30;99.90;;;;;;1880822;76;21082;-72
2021/05/23 00:42:19;;;;;;;1.02;0.40;;;11.30;99.90;;;;;;1880635;76;21317;-72
2021/05/23 00:44:45;;;;;;;0.70;0.40;;;11.20;99.90;;;;;;1880898;76;21074;-72
2021/05/23 00:47:11;;;;;;;0.70;0.60;;;11.30;99.90;;;;;;1883514;76;21169;-71
2021/05/23 00:49:37;;;;;;;1.52;0.50;;;11.20;99.90;;;;;;1884270;75;21036;-71
2021/05/23 00:52:03;;;;;;;1.10;0.50;;;11.30;99.90;;;;;;1884091;76;21156;-71
2021/05/23 00:54:30;;;;;;;0.70;0.53;;;11.20;99.90;;;;;;1882584;76;21149;-72
2021/05/23 00:56:56;;;;;;;0.70;0.40;;;11.20;99.90;;;;;;1880325;76;21177;-72
2021/05/23 00:59:22;;;;;;;4.85;0.50;;;11.30;99.90;;;;;;1880486;76;21078;-72
2021/05/23 01:01:48;;;;;;;1.77;0.50;;;11.20;99.90;;;;;;1880300;76;21108;-71
2021/05/23 01:04:14;;;;;;;1.20;0.70;;;11.10;99.90;;;;;;1880441;76;21173;-72
2021/05/23 01:06:40;;;;;;;3.67;0.60;;;11.10;99.90;;;;;;1880520;76;21141;-71
2021/05/23 01:09:06;;;;;;;4.28;0.60;;;11.20;99.90;;;;;;1880470;76;21159;-71
2021/05/23 01:11:33;;;;;;;0.45;0.25;;;11.20;99.90;;;;;;1880347;76;21522;-72
2021/05/23 01:13:59;;;;;;;2.02;0.72;;;11.10;99.90;;;;;;1880355;76;21074;-71
2021/05/23 01:16:25;;;;;;;0.60;0.40;;;11.10;99.90;;;;;;1880376;76;21055;-72
2021/05/23 01:18:51;;;;;;;0.37;0.37;;;11.20;99.90;;;;;;1880470;76;21074;-70
2021/05/23 01:21:17;;;;;;;2.58;0.60;;;11.20;99.90;;;;;;1880578;76;21071;-73
2021/05/23 01:23:44;;;;;;;0.35;0.35;;;11.30;99.90;;;;;;1880527;76;21148;-71
2021/05/23 01:26:13;;;;;;;0.95;0.30;;;11.20;99.90;;;;;;1880446;76;21577;-72
2021/05/23 01:28:38;;;;;;;0.55;0.50;;;11.30;99.90;;;;;;1880432;76;21088;-73
2021/05/23 01:31:04;;;;;;;1.65;0.50;;;11.20;99.90;;;;;;1880428;76;21115;-73
2021/05/23 01:33:30;;;;;;;0.45;0.30;;;11.20;99.90;;;;;;1880559;76;21171;-72
2021/05/23 01:35:56;;;;;;;1.42;0.50;;;11.40;99.90;;;;;;1880408;76;21051;-72
2021/05/23 01:38:22;;;;;;;1.02;0.55;;;11.30;99.90;;;;;;1880408;76;21532;-71
2021/05/23 01:40:48;;;;;;;0.20;0.20;;;11.30;99.90;;;;;;1880340;76;21494;-73
2021/05/23 01:43:15;;;;;;;0.53;0.33;;;11.20;99.90;;;;;;1880230;76;21442;-72
2021/05/23 01:45:41;;;;;;;0.55;0.30;;;11.20;99.90;;;;;;1880374;76;21079;-72
2021/05/23 01:48:07;;;;;;;0.45;0.40;;;11.40;99.90;;;;;;1880443;76;21015;-72
2021/05/23 01:50:33;;;;;;;0.30;0.30;;;11.40;99.90;;;;;;1880443;76;21160;-72
2021/05/23 01:52:59;;;;;;;2.20;0.50;;;11.50;99.90;;;;;;1880389;76;21109;-72
2021/05/23 01:55:25;;;;;;;0.40;0.40;;;11.50;99.90;;;;;;1880365;76;21070;-72
2021/05/23 01:57:51;;;;;;;1.50;0.45;;;11.40;99.90;;;;;;1880445;76;21051;-73
2021/05/23 02:00:17;;;;;;;0.40;0.40;;;11.40;99.90;;;;;;1880484;76;21078;-73
2021/05/23 02:02:44;;;;;;;0.98;0.40;;;11.30;99.90;;;;;;1880420;76;21157;-71
2021/05/23 02:05:10;;;;;;;1.30;0.53;;;11.30;99.90;;;;;;1880268;76;21121;-72
2021/05/23 02:07:36;;;;;;;1.12;0.37;;;11.30;99.90;;;;;;1880368;76;21124;-72
2021/05/23 02:10:02;;;;;;;0.88;0.45;;;11.30;99.90;;;;;;1880220;76;21078;-72
2021/05/23 02:12:28;;;;;;;2.02;0.47;;;11.30;99.90;;;;;;1880314;76;21102;-71
2021/05/23 02:14:54;;;;;;;0.33;0.30;;;11.20;99.90;;;;;;1880203;76;21160;-72
2021/05/23 02:17:20;;;;;;;0.30;0.23;;;11.20;99.90;;;;;;1880291;76;21447;-72
2021/05/23 02:19:49;;;;;;;0.35;0.35;;;11.30;99.90;;;;;;1880253;76;21506;-71
2021/05/23 02:22:14;;;;;;;3.58;0.45;;;11.40;99.90;;;;;;1880019;76;21142;-72
2021/05/23 02:24:40;;;;;;;0.85;0.40;;;11.50;99.90;;;;;;1880238;76;21082;-73
2021/05/23 02:27:07;;;;;;;0.30;0.30;;;11.40;99.90;;;;;;1880316;76;21148;-71
2021/05/23 02:29:33;;;;;;;2.80;0.60;;;11.40;99.90;;;;;;1880187;76;21078;-72
2021/05/23 02:31:59;;;;;;;1.17;0.50;;;11.30;99.90;;;;;;1880245;76;21090;-72
2021/05/23 02:34:25;;;;;;;0.55;0.45;;;11.30;99.90;;;;;;1880467;76;21132;-72
2021/05/23 02:36:52;;;;;;;2.15;0.40;;;11.40;99.90;;;;;;1880818;76;21075;-72
2021/05/23 02:39:18;;;;;;;1.10;0.60;;;11.30;99.90;;;;;;1880851;76;21490;-72
2021/05/23 02:41:44;;;;;;;1.10;0.33;;;11.40;99.90;;;;;;1880623;76;21568;-73
2021/05/23 02:44:10;;;;;;;1.35;0.30;;;11.30;99.90;;;;;;1881016;76;21565;-72
2021/05/23 02:46:38;;;;;;;0.93;0.47;;;11.40;99.90;;;;;;1880661;76;21559;-72
2021/05/23 02:49:04;;;;;;;0.42;0.23;;;11.50;99.90;;;;;;1880870;76;21090;-69
2021/05/23 02:51:30;;;;;;;1.50;0.40;;;11.10;99.90;;;;;;1880634;76;21158;-69
2021/05/23 02:53:56;;;;;;;0.40;0.40;;;10.80;99.90;;;;;;1880860;76;21082;-69
2021/05/23 02:56:23;;;;;;;2.10;0.28;;;10.60;99.90;;;;;;1880639;76;21185;-70
2021/05/23 02:58:49;;;;;;;0.25;0.23;;;10.50;99.90;;;;;;1880839;76;21149;-69
2021/05/23 03:01:15;;;;;;;1.35;0.50;;;10.40;99.90;;;;;;1880656;76;21152;-70
2021/05/23 03:03:41;;;;;;;10.25;0.50;;;10.30;99.90;;;;;;1880843;76;21071;-70
2021/05/23 03:06:07;;;;;;;2.15;0.80;;;10.20;99.90;;;;;;1880672;76;21157;-70
2021/05/23 03:08:33;;;;;;;4.20;0.40;;;10.20;99.90;;;;;;1880741;76;21107;-71
2021/05/23 03:10:59;;;;;;;1.77;0.30;;;10.30;99.90;;;;;;1880811;76;21080;-71
2021/05/23 03:13:26;;;;;;;2.05;0.60;;;10.30;99.90;;;;;;1880744;76;21054;-71
2021/05/23 03:15:52;;;;;;;0.47;0.30;;;10.20;99.90;;;;;;1880873;76;21137;-71
2021/05/23 03:18:18;;;;;;;0.90;0.30;;;10.10;99.90;;;;;;1883698;76;21090;-71
2021/05/23 03:20:44;;;;;;;0.17;0.17;;;10.10;99.90;;;;;;1886400;76;21047;-71
2021/05/23 03:23:10;;;;;;;1.20;0.62;;;10.00;99.90;;;;;;1886417;76;21191;-71
2021/05/23 03:25:36;;;;;;;0.10;0.10;;;9.90;99.90;;;;;;1886392;76;21115;-71
2021/05/23 03:28:02;;;;;;;0.50;0.50;;;9.80;99.90;;;;;;1886423;76;21122;-71
2021/05/23 03:30:28;;;;;;;1.32;0.25;;;9.80;99.90;;;;;;1886400;76;21290;-71
2021/05/23 03:32:55;;;;;;;0.30;0.30;;;10.00;99.90;;;;;;1886364;76;21491;-71
2021/05/23 03:35:21;;;;;;;0.20;0.20;;;10.10;99.90;;;;;;1886401;76;21611;-71
2021/05/23 03:37:47;;;;;;;3.22;0.33;;;9.90;99.90;;;;;;1886482;76;21554;-71
2021/05/23 03:40:15;;;;;;;0.50;0.50;;;9.90;99.90;;;;;;1886260;76;21151;-71
2021/05/23 03:42:41;;;;;;;0.95;0.17;;;9.80;99.90;;;;;;1886476;76;21119;-71
2021/05/23 03:45:08;;;;;;;0.30;0.30;;;9.70;99.90;;;;;;1886286;76;21503;-71
2021/05/23 03:47:34;;;;;;;0.20;0.20;;;9.70;99.90;;;;;;1886894;75;21067;-71
2021/05/23 03:50:00;;;;;;;0.50;0.15;;;9.70;99.90;;;;;;1880768;76;21158;-71
2021/05/23 03:52:26;;;;;;;0.88;0.30;;;9.70;99.90;;;;;;1880919;76;21572;-71
2021/05/23 03:54:53;;;;;;;0.33;0.20;;;9.70;99.90;;;;;;1880861;76;21510;-71
2021/05/23 03:57:19;;;;;;;1.20;0.30;;;9.60;99.90;;;;;;1880938;76;21564;-72
2021/05/23 03:59:45;;;;;;;0.33;0.20;;;9.70;99.90;;;;;;1880749;76;21181;-71
2021/05/23 04:02:11;;;;;;;0.62;0.30;;;9.70;99.90;;;;;;1880999;76;21180;-72
2021/05/23 04:04:56;;;;;;;2.25;0.35;;;9.60;99.90;;;;;;1880869;76;21047;-72
2021/05/23 04:07:18;;;;;;;0.40;0.30;;;9.60;99.90;;;;;;1879760;76;21099;-71
2021/05/23 04:09:44;;;;;;;0.20;0.20;;;9.60;99.90;;;;;;1880755;76;21567;-72
2021/05/23 04:12:10;;;;;;;0.40;0.40;;;9.70;99.90;;;;;;1880933;76;21204;-72
2021/05/23 04:14:37;;;;;;;0.20;0.20;;;9.70;99.90;;;;;;1880777;76;21118;-72
2021/05/23 04:17:03;;;;;;;0.23;0.23;;;9.70;99.90;;;;;;1880945;76;21121;-73
2021/05/23 04:19:29;;;;;;;0.30;0.28;;;9.60;99.90;;;;;;1880761;76;21115;-72
2021/05/23 04:21:55;;;;;;;0.50;0.33;;;9.70;99.90;;;;;;1880889;76;21568;-72
2021/05/23 04:24:21;;;;;;;1.75;0.50;;;9.70;99.90;;;;;;1880897;76;21477;-72
2021/05/23 04:26:47;;;;;;;6.92;0.50;;;9.70;99.90;;;;;;1880862;76;21533;-73
2021/05/23 04:29:13;;;;;;;0.45;0.30;;;9.70;99.90;;;;;;1880862;76;21498;-72
2021/05/23 04:31:39;;;;;;;1.85;0.20;;;9.70;99.90;;;;;;1880817;76;21082;-72
2021/05/23 04:34:06;;;;;;;3.15;0.50;;;9.60;99.90;;;;;;1880822;76;21152;-72
2021/05/23 04:36:32;;;;;;;0.25;0.25;;;9.70;99.90;;;;;;1880843;76;21148;-73
2021/05/23 04:38:58;;;;;;;1.42;0.42;;;9.60;99.90;;;;;;1880860;76;21099;-74
2021/05/23 04:41:24;;;;;;;0.40;0.40;;;9.70;99.90;;;;;;1880853;76;21073;-73
2021/05/23 04:43:50;;;;;;;0.28;0.28;;;9.70;99.90;;;;;;1880842;76;21076;-72
2021/05/23 04:46:16;;;;;;;1.12;0.30;;;9.80;99.90;;;;;;1880818;76;21067;-72
2021/05/23 04:48:42;;;;;;;0.20;0.20;;;9.80;99.90;;;;;;1880896;76;21070;-73
2021/05/23 04:51:08;;;;;;;0.88;0.30;;;9.80;99.90;;;;;;1880927;76;21168;-73
2021/05/23 04:53:34;;;;;;;0.75;0.30;;;9.90;99.90;;;;;;1880897;76;21055;-72
2021/05/23 04:56:01;;;;;;;0.20;0.20;;;9.90;99.90;;;;;;1880731;76;21228;-72
2021/05/23 04:58:27;;;;;;;0.68;0.30;;;9.90;99.90;;;;;;1880921;76;21074;-72
2021/05/23 05:00:53;;;;;;;0.68;0.28;;;9.90;99.90;;;;;;1880733;76;21090;-72
2021/05/23 05:03:19;;;;;;;0.60;0.53;;;9.90;99.90;;;;;;1880931;76;21156;-73
2021/05/23 05:05:45;;;;;;;0.23;0.20;;;9.90;99.90;;;;;;1880810;76;21484;-73
2021/05/23 05:08:11;;;;;;;2.20;0.30;;;10.00;99.90;;;;;;1880805;76;21577;-73
2021/05/23 05:10:37;;;;;;;0.40;0.40;;;10.00;99.90;;;;;;1880814;76;21682;-72
2021/05/23 05:13:03;;;;;;;0.62;0.30;;;10.10;99.90;;;;;;1880903;76;21071;-73
2021/05/23 05:15:30;;;;;;;0.42;0.40;;;10.10;99.90;;;;;;1880840;76;21107;-73
2021/05/23 05:17:56;;;;;;;0.37;0.30;;;10.20;99.90;;;;;;1880815;76;21044;-73
2021/05/23 05:20:22;;;;;;;3.12;0.42;;;10.30;99.90;;;;;;1880831;76;21078;-73
2021/05/23 05:22:48;;;;;;;0.30;0.30;;;10.40;99.90;;;;;;1880838;76;21184;-73
2021/05/23 05:25:14;;;;;;;0.20;0.20;;;10.50;99.90;;;;;;1880845;76;21181;-73
2021/05/23 05:27:40;;;;;;;2.65;0.37;;;10.50;99.90;;;;;;1880844;76;21096;-73
2021/05/23 05:30:06;;;;;;;0.42;0.30;;;10.50;99.90;;;;;;1880734;76;21059;-73
2021/05/23 05:32:32;;;;;;;2.87;0.30;;;10.60;99.90;;;;;;1880898;76;21074;-73
2021/05/23 05:34:59;;;;;;;0.28;0.23;;;10.70;99.90;;;;;;1880992;76;21082;-72
2021/05/23 05:37:25;;;;;;;1.57;0.57;;;10.70;99.90;;;;;;1881016;76;21053;-73
2021/05/23 05:39:51;;;;;;;0.93;0.40;;;10.80;99.90;;;;;;1880999;76;21126;-73
2021/05/23 05:42:17;;;;;;;0.47;0.30;;;10.80;99.90;;;;;;1881038;76;21153;-73
2021/05/23 05:44:43;;;;;;;0.20;0.20;;;10.80;99.90;;;;;;1880910;76;21503;-72
2021/05/23 05:47:09;;;;;;;0.30;0.30;;;10.90;99.90;;;;;;1880752;76;21554;-73
2021/05/23 05:49:36;;;;;;;0.30;0.17;;;10.90;99.90;;;;;;1880934;76;21512;-72
2021/05/23 05:52:03;;;;;;;1.75;0.40;;;10.80;99.90;;;;;;1880710;76;21107;-72
2021/05/23 05:54:29;;;;;;;1.02;0.35;;;10.90;99.90;;;;;;1880825;76;21111;-73
2021/05/23 05:56:55;;;;;;;0.45;0.30;;;10.90;99.90;;;;;;1880876;76;21086;-72
2021/05/23 05:59:21;;;;;;;1.07;0.25;;;10.90;99.90;;;;;;1880808;76;21141;-73
2021/05/23 06:01:47;;;;;;;1.47;0.30;;;11.00;99.90;;;;;;1880795;76;21102;-73
2021/05/23 06:04:13;;;;;;;0.25;0.20;;;11.00;99.90;;;;;;1880798;76;21119;-73
2021/05/23 06:06:39;;;;;;;0.28;0.28;;;11.20;99.90;;;;;;1880850;76;21552;-74
2021/05/23 06:09:05;;;;;;;0.60;0.35;;;11.30;99.90;;;;;;1880684;76;21562;-74
2021/05/23 06:11:32;;;;;;;1.55;0.45;;;11.30;99.90;;;;;;1880878;76;21446;-73
2021/05/23 06:13:58;;;;;;;1.50;0.40;;;11.20;99.90;;;;;;1880878;76;21525;-73
2021/05/23 06:16:25;;;;;;;0.20;0.20;;;11.10;99.90;;;;;;1880949;76;21563;-74
2021/05/23 06:18:51;;;;;;;0.30;0.30;;;11.20;99.90;;;;;;1880685;76;21158;-73
2021/05/23 06:21:17;;;;;;;1.55;0.30;;;11.00;99.90;;;;;;1880810;76;21094;-73
2021/05/23 06:23:43;;;;;;;1.62;0.40;;;11.00;99.90;;;;;;1880804;76;21103;-73
2021/05/23 06:26:13;;;;;;;0.50;0.40;;;11.10;99.90;;;;;;1880822;76;21107;-72
2021/05/23 06:28:37;;;;;;;1.05;0.50;;;11.30;99.90;;;;;;1880205;76;21111;-74
2021/05/23 06:31:03;;;;;;;0.33;0.33;;;11.30;99.90;;;;;;1880798;76;21178;-72
2021/05/23 06:33:29;;;;;;;0.53;0.35;;;11.40;99.90;;;;;;1880731;76;21082;-74
2021/05/23 06:35:56;;;;;;;0.20;0.20;;;11.40;99.90;;;;;;1880885;76;21144;-74
2021/05/23 06:38:22;;;;;;;0.30;0.30;;;11.50;99.90;;;;;;1880871;76;21506;-74
2021/05/23 06:40:48;;;;;;;0.20;0.20;;;11.60;99.90;;;;;;1880746;76;21554;-72
2021/05/23 06:43:14;;;;;;;0.65;0.50;;;11.70;99.90;;;;;;1880874;76;21527;-72
2021/05/23 06:45:41;;;;;;;0.37;0.30;;;11.90;99.90;;;;;;1880800;76;21221;-73
2021/05/23 06:48:09;;;;;;;0.45;0.40;;;11.90;99.90;;;;;;1880871;76;21144;-75
2021/05/23 06:50:35;;;;;;;1.80;0.30;;;11.90;99.90;;;;;;1880889;76;21463;-74
2021/05/23 06:53:01;;;;;;;0.50;0.40;;;12.00;99.90;;;;;;1880837;76;21115;-74
2021/05/23 06:55:27;;;;;;;0.82;0.55;;;11.90;99.90;;;;;;1880870;76;21140;-73
2021/05/23 06:57:53;;;;;;;2.72;0.33;;;12.00;99.90;;;;;;1880980;76;21074;-73
2021/05/23 07:00:21;;;;;;;2.15;0.33;;;11.90;99.90;;;;;;1880888;76;21043;-73
2021/05/23 07:02:47;;;;;;;0.75;0.35;;;11.60;99.90;;;;;;1880848;75;21479;-74
2021/05/23 07:05:13;;;;;;;0.35;0.20;;;11.80;99.90;;;;;;1880891;76;21082;-74
2021/05/23 07:07:39;;;;;;;0.68;0.30;;;12.00;99.90;;;;;;1880857;76;21070;-75
2021/05/23 07:10:05;;;;;;;0.37;0.20;;;12.20;99.90;;;;;;1880867;76;21078;-74
2021/05/23 07:12:31;;;;;;;0.62;0.40;;;12.40;99.90;;;;;;1880826;76;21086;-73
2021/05/23 07:14:58;;;;;;;0.62;0.40;;;12.40;99.90;;;;;;1880966;76;21075;-74
2021/05/23 07:17:24;;;;;;;0.62;0.33;;;12.60;99.90;;;;;;1880950;76;21074;-74
2021/05/23 07:19:50;;;;;;;0.35;0.28;;;12.70;99.90;;;;;;1880940;76;21047;-75
2021/05/23 07:22:16;;;;;;;0.20;0.20;;;12.30;99.90;;;;;;1880784;76;21099;-74
2021/05/23 07:24:42;;;;;;;0.35;0.30;;;12.40;99.90;;;;;;1880947;76;21071;-74
2021/05/23 07:27:08;;;;;;;0.28;0.28;;;12.90;99.90;;;;;;1881047;76;21078;-74
2021/05/23 07:29:34;;;;;;;0.20;0.13;;;13.90;99.90;;;;;;1881110;76;21051;-75
2021/05/23 07:32:00;;;;;;;1.92;0.30;;;14.60;99.90;;;;;;1881069;76;21078;-78
2021/05/23 07:34:27;;;;;;;0.10;0.10;;;15.20;99.90;;;;;;1880903;76;21132;-78
2021/05/23 07:36:53;;;;;;;0.28;0.28;;;16.10;99.90;;;;;;1880944;76;21498;-77
2021/05/23 07:39:19;;;;;;;1.37;0.20;;;16.30;99.90;;;;;;1880972;76;21463;-78
2021/05/23 07:41:45;;;;;;;2.60;0.30;;;15.70;99.90;;;;;;1880784;76;21103;-76
2021/05/23 07:44:11;;;;;;;0.17;0.17;;;14.90;99.90;;;;;;1880965;76;21087;-77
2021/05/23 07:46:38;;;;;;;0.25;0.20;;;14.30;99.90;;;;;;1881027;76;21070;-76
2021/05/23 07:49:04;;;;;;;0.82;0.20;;;14.40;99.90;;;;;;1881075;76;21501;-76
2021/05/23 07:51:30;;;;;;;0.90;0.28;;;14.70;99.90;;;;;;1880714;76;21575;-76
2021/05/23 07:53:56;;;;;;;0.50;0.20;;;15.20;99.90;;;;;;1880657;76;21521;-79
2021/05/23 07:56:22;;;;;;;1.07;0.40;;;15.00;99.90;;;;;;1880886;76;21153;-75
2021/05/23 07:58:49;;;;;;;0.78;0.25;;;14.10;99.90;;;;;;1880783;76;21066;-75
2021/05/23 08:01:15;;;;;;;0.30;0.30;;;13.20;99.90;;;;;;1880978;76;21078;-74
2021/05/23 08:03:41;;;;;;;0.60;0.25;;;12.10;99.90;;;;;;1881030;76;21109;-74
2021/05/23 08:06:08;;;;;;;0.75;0.20;;;11.10;99.90;;;;;;1880966;76;21074;-74
2021/05/23 08:08:35;;;;;;;0.40;0.30;;;10.90;99.90;;;;;;1880956;76;21067;-70
2021/05/23 08:11:01;;;;;;;2.95;0.20;;;10.70;99.90;;;;;;1880754;76;21169;-75
2021/05/23 08:13:27;;;;;;;0.55;0.30;;;10.50;99.90;;;;;;1880839;76;21055;-76
2021/05/23 08:15:54;;;;;;;0.30;0.10;;;10.20;99.90;;;;;;1880835;76;21152;-75
2021/05/23 08:18:27;;;;;;;0.20;0.20;;;10.20;99.90;;;;;;1880975;76;21144;-76
2021/05/23 08:20:50;;;;;;;3.30;0.23;;;10.10;99.90;;;;;;1879659;76;21500;-76
2021/05/23 08:23:16;;;;;;;0.15;0.10;;;10.20;99.90;;;;;;1880835;76;21103;-76
2021/05/23 08:25:42;;;;;;;0.45;0.17;;;10.40;99.90;;;;;;1880796;76;21123;-76
2021/05/23 08:28:08;;;;;;;0.40;0.30;;;10.50;99.90;;;;;;1880927;76;21082;-76
2021/05/23 08:30:34;;;;;;;2.87;0.55;;;10.50;99.90;;;;;;1880934;76;21082;-77
2021/05/23 08:33:01;;;;;;;0.45;0.35;;;10.70;99.90;;;;;;1880725;76;21055;-76
2021/05/23 08:35:27;;;;;;;0.13;0.13;;;10.90;99.90;;;;;;1880661;76;21086;-77
2021/05/23 08:37:53;;;;;;;1.00;0.40;;;11.10;99.90;;;;;;1880526;76;21156;-77
2021/05/23 08:40:19;;;;;;;1.70;0.20;;;11.70;99.90;;;;;;1880606;76;21071;-77
2021/05/23 08:42:46;;;;;;;0.20;0.20;;;12.40;99.90;;;;;;1880744;76;21027;-78
2021/05/23 08:45:12;;;;;;;1.00;0.25;;;13.20;99.90;;;;;;1880466;76;21117;-78
2021/05/23 08:47:38;;;;;;;1.20;0.20;;;13.50;99.90;;;;;;1880694;76;21082;-78
2021/05/23 08:50:04;;;;;;;0.78;0.25;;;13.80;99.90;;;;;;1880529;76;21074;-78
2021/05/23 08:52:31;;;;;;;1.05;0.30;;;13.80;99.90;;;;;;1880642;76;21079;-78
2021/05/23 08:54:57;;;;;;;0.42;0.28;;;14.90;99.90;;;;;;1880608;76;21071;-78
2021/05/23 08:57:23;;;;;;;0.20;0.20;;;15.10;99.90;;;;;;1880674;76;21075;-78
2021/05/23 08:59:50;;;;;;;4.15;0.33;;;14.80;99.90;;;;;;1880514;76;21167;-77
2021/05/23 09:02:16;;;;;;;1.12;0.20;;;14.60;99.90;;;;;;1880691;76;21090;-77
2021/05/23 09:04:42;;;;;;;0.23;0.10;;;14.30;99.90;;;;;;1880804;76;21062;-78
2021/05/23 09:07:08;;;;;;;1.20;0.60;;;14.10;99.90;;;;;;1880641;76;21494;-78
2021/05/23 09:09:35;;;;;;;0.93;0.40;;;14.50;99.90;;;;;;1881344;76;21506;-80
2021/05/23 09:12:04;;;;;;;1.40;0.55;;;14.70;99.90;;;;;;1881506;76;21110;-80
2021/05/23 09:14:29;;;;;;;0.98;0.20;;;14.70;99.90;;;;;;1881236;76;21185;-81
2021/05/23 09:16:55;;;;;;;0.57;0.20;;;15.30;99.90;;;;;;1881626;76;21144;-81
2021/05/23 09:19:21;;;;;;;0.40;0.40;;;15.90;99.90;;;;;;1881613;76;21078;-82
2021/05/23 09:21:47;;;;;;;1.12;0.37;;;15.90;99.90;;;;;;1881688;76;21042;-85
2021/05/23 09:24:14;;;;;;;1.60;0.40;;;16.00;99.90;;;;;;1881483;76;21074;-78
2021/05/23 09:26:40;;;;;;;2.20;0.20;;;16.40;99.90;;;;;;1881568;76;21058;-82
2021/05/23 09:29:07;;;;;;;1.95;0.28;;;16.60;99.90;;;;;;1881453;76;21094;-81
2021/05/23 09:31:35;;;;;;;0.95;0.40;;;16.00;99.90;;;;;;1880982;76;21170;-80
2021/05/23 09:34:01;;;;;;;2.65;0.45;;;16.00;99.90;;;;;;1881379;76;21048;-80
2021/05/23 09:36:27;;;;;;;1.10;0.30;;;15.90;99.90;;;;;;1881327;76;21159;-81
2021/05/23 09:38:55;;;;;;;3.70;0.40;;;15.90;99.90;;;;;;1881270;75;21145;-78
2021/05/23 09:41:21;;;;;;;0.60;0.30;;;15.70;99.90;;;;;;1882260;76;21091;-80
2021/05/23 09:43:47;;;;;;;1.37;0.70;;;15.70;99.90;;;;;;1886948;76;21103;-78
2021/05/23 09:46:13;;;;;;;2.55;0.57;;;15.50;99.90;;;;;;1887220;76;21107;-79
2021/05/23 09:48:39;;;;;;;3.40;0.60;;;14.90;99.90;;;;;;1887942;76;21143;-79
2021/05/23 09:51:07;;;;;;;2.58;0.72;;;14.80;99.90;;;;;;1886584;76;21159;-74
2021/05/23 09:53:33;;;;;;;1.25;0.50;;;14.70;99.90;;;;;;1886273;76;21081;-76
2021/05/23 09:56:00;;;;;;;0.68;0.37;;;14.60;99.90;;;;;;1886214;76;21139;-75
2021/05/23 09:58:26;;;;;;;0.72;0.50;;;14.30;99.90;;;;;;1886321;76;21078;-74
2021/05/23 10:00:52;;;;;;;1.35;0.25;;;13.80;99.90;;;;;;1886365;76;21122;-75
2021/05/23 10:03:20;;;;;;;1.37;0.30;;;13.20;99.90;;;;;;1888781;75;21084;-76
2021/05/23 10:05:46;;;;;;;0.28;0.28;;;12.70;99.90;;;;;;1880675;76;21107;-77
2021/05/23 10:08:12;;;;;;;0.23;0.23;;;12.60;99.90;;;;;;1880757;76;21212;-77
2021/05/23 10:10:38;;;;;;;0.42;0.25;;;12.60;99.90;;;;;;1880819;76;21055;-78
2021/05/23 10:13:04;;;;;;;0.20;0.20;;;12.60;99.90;;;;;;1880788;76;21152;-80
2021/05/23 10:15:30;;;;;;;3.02;0.40;;;12.60;99.90;;;;;;1880828;76;21192;-81
2021/05/23 10:17:56;;;;;;;0.75;0.30;;;13.00;99.90;;;;;;1880697;76;21086;-77
2021/05/23 10:20:22;;;;;;;1.27;0.37;;;13.50;99.90;;;;;;1880999;76;21143;-78
2021/05/23 10:22:51;;;;;;;2.08;0.40;;;14.40;99.90;;;;;;1881079;76;21156;-79
2021/05/23 10:25:16;;;;;;;0.20;0.20;;;15.10;99.90;;;;;;1880580;76;21107;-77
2021/05/23 10:27:43;;;;;;;0.82;0.28;;;16.00;99.90;;;;;;1880618;76;21200;-77
2021/05/23 10:30:09;;;;;;;0.35;0.30;;;15.30;99.90;;;;;;1880629;76;21095;-76
2021/05/23 10:32:35;;;;;;;0.30;0.30;;;15.80;99.90;;;;;;1880521;76;21114;-76
2021/05/23 10:35:01;;;;;;;0.37;0.20;;;16.30;99.90;;;;;;1881305;76;21115;-78
2021/05/23 10:37:27;;;;;;;2.17;0.30;;;16.00;99.90;;;;;;1881260;76;21074;-80
2021/05/23 10:39:54;;;;;;;0.30;0.30;;;15.70;99.90;;;;;;1880701;76;21153;-80
2021/05/23 10:42:21;;;;;;;1.70;0.55;;;15.90;99.90;;;;;;1880552;76;21137;-78
2021/05/23 10:44:47;;;;;;;3.92;0.40;;;15.90;99.90;;;;;;1880561;76;21149;-79
2021/05/23 10:47:13;;;;;;;0.33;0.30;;;15.80;99.90;;;;;;1880682;76;21156;-78
2021/05/23 10:49:40;;;;;;;0.23;0.20;;;15.90;99.90;;;;;;1880621;76;21490;-77
2021/05/23 10:52:06;;;;;;;2.92;0.40;;;15.70;99.90;;;;;;1880658;76;21161;-77
2021/05/23 10:54:32;;;;;;;0.80;0.20;;;15.80;99.90;;;;;;1880718;76;21126;-76
2021/05/23 10:56:58;;;;;;;0.30;0.30;;;16.00;99.90;;;;;;1880699;76;21055;-78
2021/05/23 10:59:24;;;;;;;1.85;0.25;;;16.00;99.90;;;;;;1880705;76;21079;-81
2021/05/23 11:01:52;;;;;;;0.20;0.20;;;16.00;99.90;;;;;;1880780;76;21144;-82
2021/05/23 11:04:18;;;;;;;1.27;0.20;;;16.30;99.90;;;;;;1880499;76;21118;-82
2021/05/23 11:06:44;;;;;;;0.68;0.23;;;16.40;99.90;;;;;;1880785;76;21093;-81
2021/05/23 11:09:11;;;;;;;1.02;0.20;;;16.30;99.90;;;;;;1880538;76;21143;-81
2021/05/23 11:11:37;;;;;;;0.20;0.20;;;16.20;99.90;;;;;;1880746;76;21482;-80
2021/05/23 11:14:03;;;;;;;0.57;0.50;;;15.80;99.90;;;;;;1880526;76;21156;-81
2021/05/23 11:16:29;;;;;;;0.50;0.30;;;15.60;99.90;;;;;;1880684;76;21074;-80
2021/05/23 11:18:55;;;;;;;0.17;0.10;;;15.50;99.90;;;;;;1880569;76;21106;-80
2021/05/23 11:21:21;;;;;;;0.93;0.30;;;15.30;99.90;;;;;;1880736;76;21070;-80
2021/05/23 11:23:47;;;;;;;0.30;0.30;;;15.20;99.90;;;;;;1880617;76;21086;-79
2021/05/23 11:26:15;;;;;;;1.02;0.40;;;15.20;99.90;;;;;;1880745;76;21074;-80
2021/05/23 11:28:41;;;;;;;0.42;0.28;;;14.50;99.90;;;;;;1880731;76;21562;-80
2021/05/23 11:31:07;;;;;;;0.35;0.30;;;14.00;99.90;;;;;;1880704;76;21486;-78
2021/05/23 11:33:35;;;;;;;2.22;0.35;;;14.20;99.90;;;;;;1880723;76;21062;-79
2021/05/23 11:36:01;;;;;;;0.75;0.35;;;14.60;99.90;;;;;;1880810;76;21078;-79
2021/05/23 11:38:27;;;;;;;1.57;0.33;;;15.10;99.90;;;;;;1880932;76;21075;-79
2021/05/23 11:40:53;;;;;;;0.10;0.10;;;15.40;99.90;;;;;;1880811;76;21141;-79
2021/05/23 11:43:19;;;;;;;0.98;0.37;;;15.70;99.90;;;;;;1880857;76;21051;-80
2021/05/23 11:45:45;;;;;;;0.28;0.23;;;16.10;99.90;;;;;;1880688;76;21148;-80
2021/05/23 11:48:11;;;;;;;0.30;0.28;;;16.40;99.90;;;;;;1881016;76;21086;-79
2021/05/23 11:50:38;;;;;;;2.17;0.37;;;16.80;99.90;;;;;;1880665;76;21156;-79
2021/05/23 11:53:04;;;;;;;0.80;0.40;;;17.30;99.90;;;;;;1880759;76;21136;-79
2021/05/23 11:55:30;;;;;;;0.60;0.30;;;17.60;99.90;;;;;;1880916;76;21160;-78
2021/05/23 11:57:56;;;;;;;0.17;0.17;;;17.70;99.90;;;;;;1891265;75;21082;-80
2021/05/23 12:00:23;;;;;;;0.80;0.30;;;17.70;99.90;;;;;;1886397;76;21125;-80
2021/05/23 12:02:49;;;;;;;0.90;0.40;;;17.60;99.90;;;;;;1886233;76;21086;-80
2021/05/23 12:05:15;;;;;;;1.57;0.40;;;17.70;99.90;;;;;;1886371;76;21087;-80
2021/05/23 12:07:42;;;;;;;7.05;0.33;;;17.00;99.90;;;;;;1886361;76;21079;-80
2021/05/23 12:10:09;;;;;;;0.60;0.25;;;16.90;99.90;;;;;;1886341;76;21185;-80
2021/05/23 12:12:35;;;;;;;0.82;0.40;;;17.30;99.90;;;;;;1886275;76;21074;-80
2021/05/23 12:15:01;;;;;;;0.25;0.25;;;18.00;99.90;;;;;;1886308;76;21112;-80
2021/05/23 12:17:27;;;;;;;1.15;0.20;;;18.10;99.90;;;;;;1886327;76;21082;-80
2021/05/23 12:19:55;;;;;;;0.65;0.45;;;17.80;99.90;;;;;;1886309;76;21121;-81
2021/05/23 12:22:21;;;;;;;0.30;0.20;;;17.70;99.90;;;;;;1891596;75;21163;-79
2021/05/23 12:24:47;;;;;;;0.60;0.30;;;18.40;99.90;;;;;;1886457;76;21074;-81
2021/05/23 12:27:16;;;;;;;0.20;0.10;;;18.10;99.90;;;;;;1886322;76;21089;-80
2021/05/23 12:29:42;;;;;;;0.93;0.40;;;17.50;99.90;;;;;;1886412;75;21570;-80
2021/05/23 12:32:08;;;;;;;0.25;0.25;;;18.20;99.90;;;;;;1886330;75;21514;-79
2021/05/23 12:34:34;;;;;;;0.75;0.30;;;18.30;99.90;;;;;;1889203;75;21466;-79
2021/05/23 12:37:02;;;;;;;0.60;0.33;;;18.60;99.90;;;;;;1886338;76;21486;-80
2021/05/23 12:39:28;;;;;;;0.23;0.23;;;18.70;99.90;;;;;;1886426;76;21055;-80
2021/05/23 12:41:54;;;;;;;0.20;0.20;;;19.60;99.90;;;;;;1886185;76;21074;-80